Time;durP1;ratioP1;P1;durP2;ratioP2;P2;SDS_P1;SDS_P2;PMS_P1;PMS_P2;Temp;Humidity;BMP_temperature;BMP_pressure;BME280_temperature;BME280_humidity;BME280_pressure;Samples;Min_cycle;Max_cycle;Signal;HPM_P1;HPM_P2
2022/05/03 00:02:07;;;;;;;21.02;11.48;;;;;;;8.28;69.26;99223.50;8368411;28;20055;-71
2022/05/03 00:06:17;;;;;;;20.25;11.23;;;;;;;8.23;69.45;99226.25;8366126;28;20053;-72
2022/05/03 00:10:24;;;;;;;24.75;12.35;;;;;;;8.18;69.45;99215.56;8385325;28;20064;-71
2022/05/03 00:14:34;;;;;;;26.40;12.32;;;;;;;8.19;69.54;99214.47;8373845;28;20136;-71
2022/05/03 00:18:35;;;;;;;20.50;10.68;;;;;;;8.23;70.06;99216.28;8358976;28;20045;-72
2022/05/03 00:22:36;;;;;;;20.35;12.20;;;;;;;8.31;70.11;99214.84;8364133;28;20579;-71
2022/05/03 00:26:37;;;;;;;28.10;12.95;;;;;;;8.39;70.25;99212.34;8424200;27;20042;-71
2022/05/03 00:30:38;;;;;;;26.73;12.30;;;;;;;8.48;69.80;99212.47;8528763;27;20051;-72
2022/05/03 00:34:40;;;;;;;21.30;12.48;;;;;;;8.51;69.46;99211.91;8458131;28;20056;-72
2022/05/03 00:38:41;;;;;;;19.05;11.30;;;;;;;8.52;69.13;99218.84;8408558;28;20071;-72
2022/05/03 00:43:02;;;;;;;19.35;11.63;;;;;;;8.49;69.16;99219.44;8432357;28;20051;-71
2022/05/03 00:47:08;;;;;;;24.85;11.35;;;;;;;8.44;69.62;99224.91;8437054;28;20074;-72
2022/05/03 00:51:15;;;;;;;22.70;11.95;;;;;;;8.33;69.95;99226.16;8440236;28;20554;-71
2022/05/03 00:55:32;;;;;;;19.13;11.75;;;;;;;8.25;70.02;99221.41;8435409;28;20091;-71
2022/05/03 00:59:50;;;;;;;23.13;12.00;;;;;;;8.17;70.22;99222.03;8397164;28;20464;-71
2022/05/03 01:04:12;;;;;;;25.33;12.82;;;;;;;8.09;70.35;99214.63;8435198;28;20139;-71
2022/05/03 01:08:48;;;;;;;25.70;12.73;;;;;;;7.99;70.31;99220.91;8444987;28;20039;-71
2022/05/03 01:13:04;;;;;;;20.17;12.00;;;;;;;7.90;70.81;99218.06;8385855;28;20045;-71
2022/05/03 01:17:20;;;;;;;27.30;13.63;;;;;;;7.85;70.96;99215.44;8380531;28;20048;-71
2022/05/03 01:21:27;;;;;;;20.60;12.02;;;;;;;7.88;71.05;99220.25;8389135;28;20040;-71
2022/05/03 01:25:43;;;;;;;22.15;13.27;;;;;;;7.88;71.14;99217.53;8358530;28;20048;-71
2022/05/03 01:29:46;;;;;;;24.65;13.57;;;;;;;7.86;71.17;99211.69;8373549;28;20561;-71
2022/05/03 01:33:49;;;;;;;28.02;13.25;;;;;;;7.84;71.01;99213.84;8332033;28;20049;-71
2022/05/03 01:38:14;;;;;;;23.23;11.90;;;;;;;7.83;70.99;99217.59;8371282;28;20052;-71
2022/05/03 01:42:22;;;;;;;24.25;12.38;;;;;;;7.76;70.93;99219.88;8395710;28;20093;-71
2022/05/03 01:46:25;;;;;;;21.60;12.00;;;;;;;7.72;71.20;99221.50;8385180;28;20096;-72
2022/05/03 01:50:42;;;;;;;23.17;11.60;;;;;;;7.72;71.17;99210.75;8471720;27;20095;-71
2022/05/03 01:55:20;;;;;;;18.55;11.27;;;;;;;7.70;71.28;99202.19;8479631;27;20497;-71
2022/05/03 01:59:31;;;;;;;25.83;12.93;;;;;;;7.65;71.23;99210.31;8467267;27;20075;-71
2022/05/03 02:03:48;;;;;;;23.20;12.80;;;;;;;7.56;71.29;99190.53;8472651;28;20126;-71
2022/05/03 02:07:56;;;;;;;23.63;12.38;;;;;;;7.47;71.74;99200.31;8475663;27;20433;-71
2022/05/03 02:12:16;;;;;;;23.67;13.55;;;;;;;7.42;71.87;99194.97;8485758;27;20039;-71
2022/05/03 02:16:25;;;;;;;26.55;13.25;;;;;;;7.40;71.75;99202.56;8468194;27;20040;-71
2022/05/03 02:20:44;;;;;;;25.65;13.02;;;;;;;7.32;72.01;99200.47;8470066;27;20069;-71
2022/05/03 02:25:07;;;;;;;22.58;12.07;;;;;;;7.20;72.39;99198.97;8467755;27;20056;-71
2022/05/03 02:29:14;;;;;;;20.33;12.40;;;;;;;7.13;72.63;99198.53;8469348;27;20100;-72
2022/05/03 02:33:32;;;;;;;22.33;12.20;;;;;;;7.05;72.95;99201.81;8476021;27;20396;-71
2022/05/03 02:37:50;;;;;;;24.10;12.80;;;;;;;6.97;73.05;99205.13;8467811;27;20072;-71
2022/05/03 02:42:00;;;;;;;27.50;12.93;;;;;;;6.88;73.25;99201.41;8417639;28;20048;-71
2022/05/03 02:46:34;;;;;;;27.90;14.00;;;;;;;6.81;73.47;99200.97;8435964;28;20051;-71
2022/05/03 02:50:54;;;;;;;23.77;12.27;;;;;;;6.75;73.33;99208.25;8461429;28;20056;-71
2022/05/03 02:55:04;;;;;;;25.10;13.25;;;;;;;6.66;73.70;99204.56;8464001;28;20515;-71
2022/05/03 02:59:14;;;;;;;25.58;13.02;;;;;;;6.61;73.75;99201.13;8464916;28;20935;-71
2022/05/03 03:03:42;;;;;;;24.67;14.15;;;;;;;6.57;73.93;99200.06;8461098;28;20556;-72
2022/05/03 03:07:56;;;;;;;27.65;14.25;;;;;;;6.50;74.05;99215.69;8446502;28;20047;-72
2022/05/03 03:12:04;;;;;;;29.60;15.45;;;;;;;6.40;74.25;99199.69;8463829;28;20035;-72
2022/05/03 03:16:07;;;;;;;28.63;15.55;;;;;;;6.38;74.23;99201.81;8462684;28;20105;-71
2022/05/03 03:20:10;;;;;;;30.30;16.75;;;;;;;6.36;74.13;99205.59;8461639;28;20055;-72
2022/05/03 03:24:11;;;;;;;28.88;15.05;;;;;;;6.38;74.37;99207.19;8464830;28;20364;-72
2022/05/03 03:28:13;;;;;;;29.35;14.02;;;;;;;6.35;74.33;99203.97;8462308;28;20044;-72
2022/05/03 03:32:15;;;;;;;26.85;14.60;;;;;;;6.31;74.37;99202.94;8461428;28;20485;-71
2022/05/03 03:36:16;;;;;;;23.88;13.77;;;;;;;6.27;74.60;99193.84;8462653;28;20066;-71
2022/05/03 03:40:19;;;;;;;26.58;13.30;;;;;;;6.25;74.53;99198.69;8472684;27;20130;-71
2022/05/03 03:44:20;;;;;;;24.63;13.57;;;;;;;6.23;74.63;99195.50;8507340;27;20043;-71
2022/05/03 03:48:21;;;;;;;21.52;13.20;;;;;;;6.22;74.59;99204.59;8526768;27;20049;-71
2022/05/03 03:52:23;;;;;;;26.40;13.23;;;;;;;6.20;74.81;99212.13;8506208;27;20146;-72
2022/05/03 03:56:24;;;;;;;27.23;14.25;;;;;;;6.23;74.87;99222.31;8523492;27;20043;-71
2022/05/03 04:00:25;;;;;;;23.52;13.10;;;;;;;6.26;74.99;99227.09;8480908;27;20122;-71
2022/05/03 04:04:30;;;;;;;24.98;13.90;;;;;;;6.26;75.28;99226.31;8499593;27;20092;-72
2022/05/03 04:08:31;;;;;;;24.02;13.27;;;;;;;6.24;75.47;99213.16;8497347;27;20103;-71
2022/05/03 04:12:32;;;;;;;26.55;13.45;;;;;;;6.27;75.08;99223.34;8498600;27;20501;-71
2022/05/03 04:16:33;;;;;;;25.70;13.45;;;;;;;6.25;75.10;99220.13;8529770;27;20077;-71
2022/05/03 04:20:35;;;;;;;28.00;13.05;;;;;;;6.36;74.88;99221.69;8522355;27;20091;-71
2022/05/03 04:24:36;;;;;;;24.42;13.95;;;;;;;6.50;74.51;99227.25;8476866;27;20043;-72
2022/05/03 04:28:38;;;;;;;21.75;12.82;;;;;;;6.66;74.19;99235.97;8444633;27;20050;-71
2022/05/03 04:32:39;;;;;;;34.08;13.90;;;;;;;6.84;73.82;99232.59;8476844;27;20046;-72
2022/05/03 04:36:40;;;;;;;24.42;13.57;;;;;;;7.06;73.73;99232.94;8512918;27;20092;-71
2022/05/03 04:40:41;;;;;;;25.20;12.77;;;;;;;7.27;73.18;99224.69;8510251;27;20114;-71
2022/05/03 04:44:42;;;;;;;25.40;13.35;;;;;;;7.46;72.94;99233.63;8503386;27;20071;-72
2022/05/03 04:48:43;;;;;;;22.98;13.10;;;;;;;7.60;72.85;99234.56;8496092;27;20051;-71
2022/05/03 04:52:44;;;;;;;23.10;12.75;;;;;;;7.67;72.92;99235.00;8507009;27;20197;-71
2022/05/03 04:56:51;;;;;;;20.20;12.82;;;;;;;7.81;73.33;99230.56;8516211;27;20043;-71
2022/05/03 05:00:52;;;;;;;27.52;13.25;;;;;;;8.21;73.56;99233.81;8492670;27;20042;-72
2022/05/03 05:04:53;;;;;;;20.88;12.05;;;;;;;8.62;72.72;99234.84;8530171;27;20043;-71
2022/05/03 05:08:54;;;;;;;26.67;12.93;;;;;;;9.01;71.18;99237.19;8527082;27;20058;-71
2022/05/03 05:12:55;;;;;;;23.80;12.35;;;;;;;9.29;70.48;99230.00;8506822;27;20042;-72
2022/05/03 05:16:57;;;;;;;25.33;12.75;;;;;;;9.47;70.53;99234.50;8483001;27;20421;-71
2022/05/03 05:20:58;;;;;;;25.95;12.88;;;;;;;9.58;70.27;99246.69;8476741;27;20076;-72
2022/05/03 05:24:59;;;;;;;30.60;13.48;;;;;;;9.68;70.19;99251.88;8508976;27;20458;-72
2022/05/03 05:29:00;;;;;;;22.50;12.20;;;;;;;9.83;70.35;99244.63;8500460;27;20047;-71
2022/05/03 05:33:01;;;;;;;22.30;11.98;;;;;;;10.11;69.75;99248.88;8527902;27;20141;-72
2022/05/03 05:37:02;;;;;;;20.90;10.73;;;;;;;10.29;69.04;99245.28;8520573;27;20100;-71
2022/05/03 05:41:13;;;;;;;22.23;10.85;;;;;;;10.48;68.15;99248.63;8506885;27;20057;-71
2022/05/03 05:45:15;;;;;;;17.33;10.27;;;;;;;10.61;68.27;99251.59;8526272;27;20043;-71
2022/05/03 05:49:16;;;;;;;20.30;9.48;;;;;;;10.81;67.88;99251.13;8505381;27;20043;-71
2022/05/03 05:53:32;;;;;;;23.20;10.98;;;;;;;11.01;67.45;99250.63;8497588;27;20068;-71
2022/05/03 05:57:34;;;;;;;21.65;9.18;;;;;;;11.16;66.38;99242.16;8524875;27;20047;-72
2022/05/03 06:01:39;;;;;;;17.98;7.57;;;;;;;11.25;66.31;99256.53;8516715;27;20046;-72
2022/05/03 06:05:40;;;;;;;20.30;6.80;;;;;;;11.35;64.86;99250.06;8507600;27;20054;-72
2022/05/03 06:09:43;;;;;;;14.57;6.88;;;;;;;11.50;63.55;99251.56;8457873;28;20043;-71
2022/05/03 06:13:44;;;;;;;14.90;6.10;;;;;;;11.68;62.13;99247.84;8517594;27;20438;-72
2022/05/03 06:17:45;;;;;;;11.23;5.88;;;;;;;11.89;61.04;99259.72;8487942;27;20353;-72
2022/05/03 06:21:47;;;;;;;14.05;6.78;;;;;;;12.05;60.35;99252.78;8525425;27;20548;-72
2022/05/03 06:25:48;;;;;;;14.30;5.18;;;;;;;12.20;59.57;99255.03;8527788;27;20079;-72
2022/05/03 06:29:49;;;;;;;14.02;5.70;;;;;;;12.38;59.40;99260.47;8527840;27;20043;-71
2022/05/03 06:33:50;;;;;;;13.27;5.90;;;;;;;12.65;57.87;99260.19;8526288;27;20447;-72
2022/05/03 06:37:51;;;;;;;11.45;5.13;;;;;;;12.79;57.36;99271.66;8491383;27;20046;-71
2022/05/03 06:41:52;;;;;;;16.65;4.97;;;;;;;12.89;56.85;99271.34;8522563;27;20537;-71
2022/05/03 06:45:53;;;;;;;8.30;4.80;;;;;;;13.00;55.90;99267.19;8513297;27;20043;-72
2022/05/03 06:49:55;;;;;;;7.25;5.18;;;;;;;13.09;54.92;99272.59;8522908;27;20059;-72
2022/05/03 06:53:56;;;;;;;10.57;5.35;;;;;;;13.22;54.98;99273.59;8474879;27;20408;-72
2022/05/03 06:57:57;;;;;;;13.48;4.95;;;;;;;13.39;54.53;99268.09;8521305;27;20050;-72
2022/05/03 07:01:59;;;;;;;6.47;4.55;;;;;;;13.53;52.36;99274.16;8531930;27;20546;-72
2022/05/03 07:06:00;;;;;;;11.35;4.82;;;;;;;13.64;52.46;99274.59;8523126;27;20039;-72
2022/05/03 07:10:02;;;;;;;10.18;5.22;;;;;;;13.79;51.68;99283.00;8463857;27;20047;-72
2022/05/03 07:14:04;;;;;;;9.60;4.90;;;;;;;14.00;49.39;99276.84;8514134;27;20050;-72
2022/05/03 07:26:44;;;;;;;10.02;5.10;;;;;;;14.61;48.02;99291.69;8528625;27;20053;-71
2022/05/03 07:30:46;;;;;;;10.00;5.25;;;;;;;14.68;47.31;99287.31;8498994;27;20043;-72
2022/05/03 07:34:47;;;;;;;9.02;4.70;;;;;;;14.89;47.48;99286.50;8472950;27;20448;-72
2022/05/03 07:38:48;;;;;;;9.40;4.85;;;;;;;14.82;46.79;99291.69;8498391;27;20047;-72
2022/05/03 07:42:49;;;;;;;11.63;4.95;;;;;;;14.85;47.23;99293.75;8480225;27;20513;-72
2022/05/03 07:46:50;;;;;;;8.88;5.10;;;;;;;15.06;46.34;99302.69;8457404;27;20481;-71
2022/05/03 07:50:51;;;;;;;5.80;4.20;;;;;;;15.16;46.32;99296.84;8531441;27;20058;-72
2022/05/03 07:54:52;;;;;;;10.00;4.93;;;;;;;15.35;46.15;99305.28;8532061;27;20560;-72
2022/05/03 07:58:53;;;;;;;11.25;4.90;;;;;;;15.46;46.07;99311.91;8511935;27;20096;-72
2022/05/03 08:02:54;;;;;;;9.10;5.50;;;;;;;15.39;46.34;99300.75;8528204;27;20089;-72
2022/05/03 08:06:55;;;;;;;11.50;4.40;;;;;;;15.40;46.85;99307.81;8515849;27;20073;-72
2022/05/03 08:10:56;;;;;;;7.63;4.40;;;;;;;15.65;44.27;99307.91;8474297;27;20047;-72
2022/05/03 08:14:57;;;;;;;12.13;5.07;;;;;;;15.72;44.85;99302.69;8513689;27;20053;-72
2022/05/03 08:18:59;;;;;;;11.07;4.80;;;;;;;15.90;45.89;99310.34;8525189;27;20433;-73
2022/05/03 08:23:00;;;;;;;12.73;6.32;;;;;;;15.90;45.21;99304.09;8477880;27;20060;-72
2022/05/03 08:27:02;;;;;;;6.22;4.10;;;;;;;16.08;45.81;99310.91;8531229;27;20058;-72
2022/05/03 08:31:03;;;;;;;11.25;4.88;;;;;;;16.25;45.35;99310.69;8527224;27;20058;-73
2022/05/03 08:35:05;;;;;;;12.57;6.18;;;;;;;16.40;43.56;99318.19;8525164;27;20050;-72
2022/05/03 08:43:33;;;;;;;9.45;4.72;;;;;;;16.50;42.54;99321.59;8371578;28;20098;-72
2022/05/03 08:47:36;;;;;;;14.77;4.70;;;;;;;16.53;41.66;99320.91;8424198;28;20044;-72
2022/05/03 08:51:37;;;;;;;9.60;4.93;;;;;;;16.77;43.10;99320.88;8406538;28;20049;-73
2022/05/03 08:55:41;;;;;;;10.77;5.30;;;;;;;16.97;43.25;99309.03;8424167;28;20139;-72
2022/05/03 08:59:43;;;;;;;9.55;5.00;;;;;;;17.20;42.50;99312.81;8422881;28;20087;-74
2022/05/03 09:03:44;;;;;;;9.07;5.15;;;;;;;17.59;40.97;99318.53;8402248;28;20127;-72
2022/05/03 09:07:56;;;;;;;11.45;5.40;;;;;;;18.01;40.00;99314.22;8421862;28;20059;-72
2022/05/03 09:11:58;;;;;;;8.82;5.25;;;;;;;17.86;38.95;99312.25;8389829;28;20044;-71
2022/05/03 09:16:10;;;;;;;10.02;5.18;;;;;;;17.38;39.17;99307.84;8372172;28;20461;-72
2022/05/03 09:25:04;;;;;;;7.93;4.38;;;;;;;17.23;40.87;99312.13;8500097;27;20111;-72
2022/05/03 09:29:09;;;;;;;9.98;5.38;;;;;;;17.33;40.66;99315.50;8499999;27;20042;-72
2022/05/03 09:33:21;;;;;;;8.40;4.55;;;;;;;17.35;39.80;99324.09;8529077;27;20496;-72
2022/05/03 09:37:37;;;;;;;9.00;5.03;;;;;;;17.54;39.47;99307.88;8474196;27;20484;-72
2022/05/03 09:41:38;;;;;;;11.00;4.70;;;;;;;17.79;39.47;99312.06;8526968;27;20054;-72
2022/05/03 09:45:40;;;;;;;10.57;6.00;;;;;;;18.03;37.87;99306.44;8519751;27;20129;-71
2022/05/03 09:49:42;;;;;;;11.60;5.22;;;;;;;18.10;39.21;99301.16;8504696;27;20124;-71
2022/05/03 09:53:55;;;;;;;11.45;5.18;;;;;;;18.31;38.87;99298.13;8529859;27;20043;-72
2022/05/03 09:58:01;;;;;;;8.52;5.22;;;;;;;18.34;38.13;99299.38;8526119;27;20118;-71
2022/05/03 10:02:02;;;;;;;8.98;4.72;;;;;;;18.37;37.54;99293.19;8526958;27;20047;-72
2022/05/03 10:06:04;;;;;;;7.45;4.80;;;;;;;18.52;37.89;99289.63;8491285;27;20047;-72
2022/05/03 10:10:09;;;;;;;8.23;5.15;;;;;;;18.77;37.72;99292.94;8516287;27;20046;-72
2022/05/03 10:14:09;;;;;;;10.73;4.47;;;;;;;18.86;38.02;99283.38;8472824;27;20046;-72
2022/05/03 10:22:50;;;;;;;8.55;4.57;;;;;;;19.06;37.11;99291.59;8504795;27;20076;-73
2022/05/03 10:27:05;;;;;;;7.25;4.70;;;;;;;19.01;37.42;99289.94;8501879;27;20058;-72
2022/05/03 10:31:05;;;;;;;16.63;5.63;;;;;;;19.25;37.17;99283.34;8530531;27;20087;-73
2022/05/03 10:35:36;;;;;;;7.57;5.15;;;;;;;19.37;35.99;99283.19;8529575;27;20057;-72
2022/05/03 10:40:07;;;;;;;10.23;4.60;;;;;;;19.20;36.20;99283.66;8518654;27;20080;-72
2022/05/03 10:45:01;;;;;;;9.38;5.32;;;;;;;19.16;34.98;99269.91;8393627;28;20152;-72
2022/05/03 10:49:15;;;;;;;11.02;5.18;;;;;;;19.14;35.98;99282.38;8327403;28;20304;-72
2022/05/03 10:53:19;;;;;;;8.48;4.53;;;;;;;18.91;36.79;99277.63;8328121;28;20491;-72
2022/05/03 10:57:19;;;;;;;6.25;4.35;;;;;;;19.14;37.50;99274.16;8327499;28;20107;-71
2022/05/03 11:01:22;;;;;;;9.70;5.28;;;;;;;19.18;36.23;99266.81;8327061;28;20450;-71
2022/05/03 11:05:22;;;;;;;9.20;4.55;;;;;;;19.38;36.56;99276.56;8327862;28;20159;-71
2022/05/03 11:09:30;;;;;;;8.93;4.70;;;;;;;19.40;36.65;99268.81;8311452;28;20193;-71
2022/05/03 11:13:41;;;;;;;9.95;4.55;;;;;;;19.34;36.10;99264.78;8327785;28;20490;-72
2022/05/03 11:17:43;;;;;;;8.65;4.57;;;;;;;19.52;36.37;99265.91;8327810;28;20777;-72
2022/05/03 11:21:45;;;;;;;9.55;5.13;;;;;;;19.79;35.28;99264.03;8347666;27;20041;-73
2022/05/03 11:25:48;;;;;;;15.38;5.05;;;;;;;20.02;35.32;99261.28;8498930;27;20058;-72
2022/05/03 11:29:55;;;;;;;7.72;4.28;;;;;;;20.20;35.42;99259.59;8492000;27;20063;-72
2022/05/03 11:33:58;;;;;;;6.45;4.85;;;;;;;20.40;34.27;99244.66;8496430;27;20505;-72
2022/05/03 11:38:00;;;;;;;10.98;4.88;;;;;;;20.55;34.66;99243.69;8532698;27;20046;-72
2022/05/03 11:42:01;;;;;;;7.35;4.45;;;;;;;21.05;34.07;99238.81;8496462;27;20516;-72
2022/05/03 11:46:07;;;;;;;8.57;4.57;;;;;;;21.36;33.35;99241.13;8498270;27;20069;-72
2022/05/03 11:50:09;;;;;;;9.60;4.43;;;;;;;21.03;33.53;99243.91;8497981;27;20126;-71
2022/05/03 11:58:44;;;;;;;8.35;4.68;;;;;;;20.74;34.40;99236.47;8496895;27;20420;-72
2022/05/03 12:02:45;;;;;;;7.07;4.28;;;;;;;21.06;33.71;99237.66;8497668;27;20039;-72
2022/05/03 12:06:48;;;;;;;6.85;4.22;;;;;;;21.07;33.56;99241.97;8497658;27;20054;-72
2022/05/03 12:10:50;;;;;;;7.20;4.43;;;;;;;20.70;33.94;99241.13;8497373;27;20047;-72
2022/05/03 12:14:51;;;;;;;8.27;4.55;;;;;;;20.40;34.92;99239.19;8497255;27;20039;-71
2022/05/03 12:18:53;;;;;;;11.90;4.47;;;;;;;20.07;35.41;99241.78;8470948;27;20484;-72
2022/05/03 12:23:15;;;;;;;8.52;4.82;;;;;;;19.83;36.06;99227.28;8485836;27;20069;-72
2022/05/03 12:27:16;;;;;;;7.78;4.60;;;;;;;19.65;35.62;99230.91;8483044;27;20047;-72
2022/05/03 12:31:19;;;;;;;9.10;4.95;;;;;;;19.59;36.40;99226.91;8494915;27;20062;-72
2022/05/03 12:35:31;;;;;;;9.02;5.10;;;;;;;19.70;36.32;99234.16;8491416;27;20051;-72
2022/05/03 12:39:36;;;;;;;9.48;5.75;;;;;;;19.48;36.62;99232.19;8491012;27;20047;-71
2022/05/03 12:43:37;;;;;;;9.45;5.50;;;;;;;19.75;37.46;99225.63;8501093;27;20184;-71
2022/05/03 12:47:38;;;;;;;7.78;4.75;;;;;;;20.38;36.76;99214.06;8525881;27;20062;-72
2022/05/03 12:51:41;;;;;;;7.35;5.05;;;;;;;20.16;35.58;99212.13;8529395;27;20047;-72
2022/05/03 12:55:42;;;;;;;8.23;4.55;;;;;;;20.43;35.59;99210.19;8526182;27;20175;-71
2022/05/03 12:59:43;;;;;;;6.90;4.70;;;;;;;20.59;35.81;99205.31;8514030;27;20046;-71
2022/05/03 13:03:47;;;;;;;9.82;5.43;;;;;;;20.41;36.32;99207.81;8500843;27;20043;-71
2022/05/03 13:07:48;;;;;;;11.80;5.88;;;;;;;20.65;36.36;99201.09;8513854;27;20050;-72
2022/05/03 13:11:49;;;;;;;8.50;5.28;;;;;;;21.05;36.77;99203.09;8498946;27;20047;-72
2022/05/03 13:15:51;;;;;;;9.13;5.63;;;;;;;21.23;35.86;99198.63;8495183;27;20122;-72
2022/05/03 13:19:53;;;;;;;13.82;5.50;;;;;;;21.48;34.80;99198.88;8458750;27;20420;-72
2022/05/03 13:23:53;;;;;;;10.90;5.15;;;;;;;21.91;35.86;99181.56;8498619;27;20053;-72
2022/05/03 13:27:55;;;;;;;8.13;4.82;;;;;;;21.57;34.03;99185.63;8528728;27;20054;-72
2022/05/03 13:31:56;;;;;;;16.45;4.85;;;;;;;21.54;34.52;99191.84;8492338;27;20054;-71
2022/05/03 13:40:33;;;;;;;8.50;4.72;;;;;;;23.36;30.99;99186.16;8526975;27;20530;-72
2022/05/03 13:44:35;;;;;;;15.53;5.07;;;;;;;23.73;30.03;99181.09;8528544;27;20050;-72
2022/05/03 13:48:36;;;;;;;7.30;4.25;;;;;;;22.33;32.88;99183.81;8528795;27;20038;-71
2022/05/03 13:52:38;;;;;;;11.45;4.82;;;;;;;21.32;33.89;99185.38;8480924;27;20390;-72
2022/05/03 13:56:39;;;;;;;7.30;4.90;;;;;;;20.83;34.77;99184.84;8494324;28;20051;-71
2022/05/03 14:00:40;;;;;;;8.90;5.07;;;;;;;20.77;35.51;99178.09;8441368;28;20088;-73
2022/05/03 14:04:41;;;;;;;7.78;4.57;;;;;;;21.52;35.40;99174.94;8462092;27;20545;-71
2022/05/03 14:08:42;;;;;;;7.80;4.75;;;;;;;24.36;31.55;99179.44;8524392;27;20515;-72
2022/05/03 14:12:43;;;;;;;8.27;4.80;;;;;;;25.81;27.92;99177.81;8448829;27;20047;-72
2022/05/03 14:16:44;;;;;;;12.73;5.45;;;;;;;24.37;29.69;99175.50;8511281;27;20385;-75
2022/05/03 14:20:46;;;;;;;11.32;4.68;;;;;;;26.09;28.30;99169.25;8534463;27;20042;-72
2022/05/03 14:24:47;;;;;;;10.68;5.38;;;;;;;25.70;28.61;99171.63;8481932;27;20540;-73
2022/05/03 14:28:49;;;;;;;8.13;5.03;;;;;;;24.76;29.49;99169.78;8521731;27;20067;-72
2022/05/03 14:32:51;;;;;;;7.03;5.00;;;;;;;23.33;31.11;99173.13;8531345;27;20061;-71
2022/05/03 14:36:52;;;;;;;8.60;4.80;;;;;;;22.40;32.57;99182.28;8486252;27;20065;-72
2022/05/03 14:40:53;;;;;;;10.43;5.40;;;;;;;21.74;33.54;99173.16;8465998;27;20055;-72
2022/05/03 14:44:54;;;;;;;8.25;4.85;;;;;;;21.66;33.54;99183.34;8501241;27;20489;-72
2022/05/03 14:48:55;;;;;;;10.27;5.32;;;;;;;21.64;33.41;99173.88;8512424;27;20058;-71
2022/05/03 14:52:56;;;;;;;11.18;4.82;;;;;;;23.42;31.82;99171.56;8473226;27;20043;-71
2022/05/03 15:05:38;;;;;;;8.20;4.93;;;;;;;24.82;28.99;99163.47;8509557;27;20069;-72
2022/05/03 15:09:38;;;;;;;8.57;4.78;;;;;;;24.50;29.29;99157.28;8507312;27;20047;-72
2022/05/03 15:13:39;;;;;;;7.85;4.50;;;;;;;24.17;29.03;99166.03;8510411;27;20092;-72
2022/05/03 15:17:44;;;;;;;7.78;4.45;;;;;;;23.65;30.32;99156.66;8503598;27;20047;-72
2022/05/03 15:21:45;;;;;;;8.55;5.32;;;;;;;23.27;29.93;99158.16;8523635;27;20441;-71
2022/05/03 15:25:46;;;;;;;7.35;4.32;;;;;;;23.43;30.21;99158.56;8478471;27;20073;-71
2022/05/03 15:29:47;;;;;;;10.25;4.68;;;;;;;22.66;31.27;99158.00;8499724;27;20043;-71
2022/05/03 15:33:48;;;;;;;8.95;4.25;;;;;;;23.29;30.51;99155.81;8522094;27;20046;-72
2022/05/03 15:37:50;;;;;;;7.07;4.55;;;;;;;23.26;30.92;99156.63;8502058;27;20095;-72
2022/05/03 15:41:50;;;;;;;10.55;4.57;;;;;;;22.54;32.25;99150.09;8521536;27;20055;-72
2022/05/03 15:45:52;;;;;;;7.63;4.32;;;;;;;23.46;31.02;99155.88;8501741;27;20111;-72
2022/05/03 15:49:54;;;;;;;7.50;4.70;;;;;;;24.58;29.60;99147.81;8505296;27;20046;-72
2022/05/03 15:53:55;;;;;;;7.05;4.10;;;;;;;24.36;29.48;99140.78;8509240;27;20534;-71
2022/05/03 15:57:58;;;;;;;6.63;4.57;;;;;;;23.04;30.75;99151.06;8522213;27;20134;-72
2022/05/03 16:01:59;;;;;;;52.75;6.45;;;;;;;22.29;32.48;99150.00;8519546;27;20500;-72
2022/05/03 16:06:00;;;;;;;7.55;4.22;;;;;;;21.80;32.60;99138.66;8485622;27;20050;-73
2022/05/03 16:10:01;;;;;;;7.30;4.35;;;;;;;22.14;32.82;99131.84;8521215;27;20070;-72
2022/05/03 16:14:02;;;;;;;5.97;4.43;;;;;;;22.64;31.45;99132.81;8517443;27;20046;-72
2022/05/03 16:18:06;;;;;;;5.93;4.20;;;;;;;21.74;32.41;99134.69;8494924;27;20049;-71
2022/05/03 16:22:11;;;;;;;7.03;4.90;;;;;;;21.32;33.50;99126.91;8529865;27;20053;-72
2022/05/03 16:26:12;;;;;;;14.32;5.05;;;;;;;20.93;33.85;99134.75;8519520;27;20038;-72
2022/05/03 16:30:13;;;;;;;9.25;3.55;;;;;;;20.83;35.17;99135.44;8523813;27;20485;-72
2022/05/03 16:34:14;;;;;;;8.55;4.35;;;;;;;20.67;35.68;99128.19;8485688;27;20054;-73
2022/05/03 16:42:37;;;;;;;12.32;5.30;;;;;;;20.36;35.93;99139.56;8525964;27;20039;-72
2022/05/03 16:46:38;;;;;;;7.38;4.57;;;;;;;20.06;36.18;99147.78;8447875;27;20054;-71
2022/05/03 16:50:39;;;;;;;7.38;4.72;;;;;;;19.78;37.11;99142.66;8446777;27;20412;-71
2022/05/03 16:54:41;;;;;;;13.25;4.75;;;;;;;19.50;37.39;99146.91;8498097;27;20492;-72
2022/05/03 16:58:42;;;;;;;9.73;5.00;;;;;;;19.25;38.13;99151.94;8496066;27;20035;-72
2022/05/03 17:02:43;;;;;;;8.57;5.32;;;;;;;19.17;38.46;99155.72;8504746;27;20043;-72
2022/05/03 17:06:44;;;;;;;10.18;5.10;;;;;;;19.16;38.51;99154.13;8476547;27;20135;-72
2022/05/03 17:10:45;;;;;;;10.25;4.40;;;;;;;19.09;38.94;99159.50;8510645;27;20047;-71
2022/05/03 17:14:47;;;;;;;6.38;4.45;;;;;;;18.88;39.32;99163.41;8480078;27;20077;-72
2022/05/03 17:18:48;;;;;;;9.98;4.78;;;;;;;18.73;39.56;99163.47;8469447;27;20050;-71
2022/05/03 17:22:52;;;;;;;7.15;4.32;;;;;;;18.56;40.82;99164.69;8495286;27;20054;-71
2022/05/03 17:26:53;;;;;;;10.20;5.40;;;;;;;18.39;40.85;99167.84;8493878;27;20667;-72
2022/05/03 17:30:54;;;;;;;17.52;5.00;;;;;;;18.25;41.13;99170.25;8447156;27;20047;-71
2022/05/03 17:34:55;;;;;;;11.55;5.05;;;;;;;18.02;41.76;99173.69;8447295;27;20042;-71
2022/05/03 17:38:57;;;;;;;10.13;5.40;;;;;;;17.73;42.62;99165.97;8495293;27;20462;-71
2022/05/03 17:42:58;;;;;;;13.32;5.57;;;;;;;17.52;42.88;99176.34;8521312;27;20106;-71
2022/05/03 17:47:00;;;;;;;11.85;5.38;;;;;;;17.23;43.67;99186.56;8499972;27;20545;-71
2022/05/03 17:51:01;;;;;;;7.90;4.63;;;;;;;17.01;44.42;99197.28;8475869;27;20055;-74
2022/05/03 17:55:03;;;;;;;9.65;4.78;;;;;;;16.78;45.13;99192.38;8494961;28;20051;-71
2022/05/03 17:59:04;;;;;;;13.75;5.38;;;;;;;16.65;45.92;99195.50;8494521;28;20386;-70
2022/05/03 18:03:07;;;;;;;9.75;4.60;;;;;;;16.38;47.11;99189.66;8475214;28;20130;-71
2022/05/03 18:07:10;;;;;;;16.05;5.32;;;;;;;16.14;47.35;99200.56;8496579;27;20058;-71
2022/05/03 18:11:15;;;;;;;10.23;4.85;;;;;;;15.95;48.44;99192.22;8504682;27;20638;-72
2022/05/03 18:15:15;;;;;;;9.77;6.03;;;;;;;15.74;49.00;99191.53;8452485;28;20051;-71
2022/05/03 18:19:17;;;;;;;21.15;7.10;;;;;;;15.55;49.52;99206.47;8496472;27;20082;-73
2022/05/03 18:23:18;;;;;;;16.17;8.50;;;;;;;15.35;50.31;99212.78;8502536;27;20062;-71
2022/05/03 18:27:19;;;;;;;26.00;11.02;;;;;;;15.15;50.85;99219.09;8496448;27;20058;-71
2022/05/03 18:31:20;;;;;;;33.58;14.18;;;;;;;14.97;51.57;99223.09;8453570;27;20068;-71
2022/05/03 18:35:22;;;;;;;31.10;15.10;;;;;;;14.81;51.99;99225.63;8496521;27;20075;-70
2022/05/03 18:39:23;;;;;;;41.38;16.90;;;;;;;14.68;52.84;99227.53;8510818;27;20140;-70
2022/05/03 18:43:26;;;;;;;39.75;18.70;;;;;;;14.49;53.34;99229.88;8459844;27;20049;-71
2022/05/03 18:47:27;;;;;;;55.67;19.77;;;;;;;14.33;53.77;99228.84;8512570;27;20051;-70
2022/05/03 18:51:28;;;;;;;44.38;17.20;;;;;;;14.21;54.50;99234.22;8514293;27;20059;-70
2022/05/03 18:55:41;;;;;;;32.80;13.23;;;;;;;14.07;54.86;99233.66;8512144;27;20147;-70
2022/05/03 18:59:42;;;;;;;28.23;12.02;;;;;;;13.93;55.32;99234.69;8521336;27;20488;-70
2022/05/03 19:03:43;;;;;;;30.13;13.52;;;;;;;13.82;55.96;99244.34;8530664;27;20043;-70
2022/05/03 19:07:45;;;;;;;24.05;11.02;;;;;;;13.75;55.89;99244.03;8516526;27;20055;-70
2022/05/03 19:11:45;;;;;;;26.25;10.00;;;;;;;13.67;56.08;99247.59;8512940;27;20047;-71
2022/05/03 19:15:47;;;;;;;21.67;9.90;;;;;;;13.55;56.66;99255.59;8516817;27;20130;-70
2022/05/03 19:19:48;;;;;;;32.92;12.23;;;;;;;13.44;57.23;99254.38;8510333;27;20050;-71
2022/05/03 19:32:29;;;;;;;50.00;17.50;;;;;;;13.06;58.68;99260.47;8519159;27;20118;-70
2022/05/03 19:36:32;;;;;;;49.53;16.58;;;;;;;12.91;59.26;99258.25;8485142;27;20047;-71
2022/05/03 19:40:35;;;;;;;29.13;12.18;;;;;;;12.82;59.44;99265.59;8517300;27;20043;-72
2022/05/03 19:44:37;;;;;;;27.88;11.85;;;;;;;12.72;59.31;99265.94;8517886;27;20089;-72
2022/05/03 19:48:40;;;;;;;26.48;11.48;;;;;;;12.55;59.93;99260.50;8482214;27;20499;-72
2022/05/03 19:52:41;;;;;;;30.40;12.13;;;;;;;12.39;60.11;99267.47;8501775;27;20039;-71